sensor_id;sensor_type;location;lat;lon;timestamp;P1;durP1;ratioP1;P2;durP2;ratioP2
2406;SDS011;37709;53.480;9.688;2022-12-29T00:01:01;4.63;;;4.23;;
2406;SDS011;37709;53.480;9.688;2022-12-29T00:03:28;5.10;;;4.70;;
2406;SDS011;37709;53.480;9.688;2022-12-29T00:05:56;4.77;;;4.27;;
2406;SDS011;37709;53.480;9.688;2022-12-29T00:08:24;4.43;;;4.03;;
2406;SDS011;37709;53.480;9.688;2022-12-29T00:11:14;10.70;;;5.57;;
2406;SDS011;37709;53.480;9.688;2022-12-29T00:13:43;5.07;;;4.57;;
2406;SDS011;37709;53.480;9.688;2022-12-29T00:16:30;4.27;;;3.93;;
2406;SDS011;37709;53.480;9.688;2022-12-29T00:18:59;5.50;;;5.00;;
2406;SDS011;37709;53.480;9.688;2022-12-29T00:21:27;8.03;;;5.00;;
2406;SDS011;37709;53.480;9.688;2022-12-29T00:24:14;3.73;;;3.33;;
2406;SDS011;37709;53.480;9.688;2022-12-29T00:26:55;5.53;;;4.60;;
2406;SDS011;37709;53.480;9.688;2022-12-29T00:29:48;5.40;;;5.00;;
2406;SDS011;37709;53.480;9.688;2022-12-29T00:32:34;5.37;;;4.90;;
2406;SDS011;37709;53.480;9.688;2022-12-29T00:36:06;5.60;;;5.10;;
2406;SDS011;37709;53.480;9.688;2022-12-29T00:38:12;5.33;;;4.80;;
2406;SDS011;37709;53.480;9.688;2022-12-29T00:40:58;4.90;;;4.50;;
2406;SDS011;37709;53.480;9.688;2022-12-29T00:43:45;5.73;;;5.13;;
2406;SDS011;37709;53.480;9.688;2022-12-29T00:46:31;6.53;;;4.70;;
2406;SDS011;37709;53.480;9.688;2022-12-29T00:49:00;4.70;;;4.30;;
2406;SDS011;37709;53.480;9.688;2022-12-29T00:51:47;5.20;;;4.70;;
2406;SDS011;37709;53.480;9.688;2022-12-29T00:54:15;5.37;;;4.97;;
2406;SDS011;37709;53.480;9.688;2022-12-29T00:56:45;4.93;;;4.40;;
2406;SDS011;37709;53.480;9.688;2022-12-29T00:59:16;4.80;;;4.40;;
2406;SDS011;37709;53.480;9.688;2022-12-29T01:01:44;5.40;;;4.90;;
2406;SDS011;37709;53.480;9.688;2022-12-29T01:04:12;4.47;;;4.03;;
2406;SDS011;37709;53.480;9.688;2022-12-29T01:06:40;4.30;;;4.00;;
2406;SDS011;37709;53.480;9.688;2022-12-29T01:09:08;8.87;;;4.77;;
2406;SDS011;37709;53.480;9.688;2022-12-29T01:11:55;4.50;;;4.20;;
2406;SDS011;37709;53.480;9.688;2022-12-29T01:14:23;4.20;;;3.80;;
2406;SDS011;37709;53.480;9.688;2022-12-29T01:16:50;5.23;;;3.77;;
2406;SDS011;37709;53.480;9.688;2022-12-29T01:19:18;4.90;;;4.50;;
2406;SDS011;37709;53.480;9.688;2022-12-29T01:21:46;4.97;;;4.40;;
2406;SDS011;37709;53.480;9.688;2022-12-29T01:24:15;4.43;;;4.13;;
2406;SDS011;37709;53.480;9.688;2022-12-29T01:26:43;3.83;;;3.53;;
2406;SDS011;37709;53.480;9.688;2022-12-29T01:29:11;4.60;;;4.20;;
2406;SDS011;37709;53.480;9.688;2022-12-29T01:31:38;4.50;;;4.10;;
2406;SDS011;37709;53.480;9.688;2022-12-29T01:34:08;4.70;;;4.30;;
2406;SDS011;37709;53.480;9.688;2022-12-29T01:36:37;5.10;;;4.40;;
2406;SDS011;37709;53.480;9.688;2022-12-29T01:39:05;4.80;;;4.30;;
2406;SDS011;37709;53.480;9.688;2022-12-29T01:41:33;5.90;;;4.80;;
2406;SDS011;37709;53.480;9.688;2022-12-29T01:44:01;5.80;;;5.30;;
2406;SDS011;37709;53.480;9.688;2022-12-29T01:46:33;5.70;;;5.03;;
2406;SDS011;37709;53.480;9.688;2022-12-29T01:49:14;5.47;;;4.97;;
2406;SDS011;37709;53.480;9.688;2022-12-29T01:51:45;5.93;;;5.33;;
2406;SDS011;37709;53.480;9.688;2022-12-29T01:54:18;6.80;;;6.20;;
2406;SDS011;37709;53.480;9.688;2022-12-29T01:56:55;6.20;;;5.70;;
2406;SDS011;37709;53.480;9.688;2022-12-29T01:59:27;6.10;;;5.50;;
2406;SDS011;37709;53.480;9.688;2022-12-29T02:01:58;6.30;;;5.70;;
2406;SDS011;37709;53.480;9.688;2022-12-29T02:04:27;5.83;;;5.27;;
2406;SDS011;37709;53.480;9.688;2022-12-29T02:07:01;5.97;;;5.47;;
2406;SDS011;37709;53.480;9.688;2022-12-29T02:09:38;5.60;;;5.20;;
2406;SDS011;37709;53.480;9.688;2022-12-29T02:12:05;5.40;;;4.90;;
2406;SDS011;37709;53.480;9.688;2022-12-29T02:14:33;6.30;;;5.70;;
2406;SDS011;37709;53.480;9.688;2022-12-29T02:17:08;5.10;;;4.70;;
2406;SDS011;37709;53.480;9.688;2022-12-29T02:20:10;5.43;;;5.03;;
2406;SDS011;37709;53.480;9.688;2022-12-29T02:23:05;5.53;;;5.03;;
2406;SDS011;37709;53.480;9.688;2022-12-29T02:25:54;5.17;;;4.67;;
2406;SDS011;37709;53.480;9.688;2022-12-29T02:32:13;4.80;;;3.93;;
2406;SDS011;37709;53.480;9.688;2022-12-29T02:34:56;4.40;;;4.00;;
2406;SDS011;37709;53.480;9.688;2022-12-29T02:38:03;3.70;;;3.30;;
2406;SDS011;37709;53.480;9.688;2022-12-29T02:41:08;4.37;;;3.80;;
2406;SDS011;37709;53.480;9.688;2022-12-29T02:43:48;4.23;;;3.90;;
2406;SDS011;37709;53.480;9.688;2022-12-29T02:49:02;3.83;;;3.53;;
2406;SDS011;37709;53.480;9.688;2022-12-29T02:54:28;4.10;;;3.80;;
2406;SDS011;37709;53.480;9.688;2022-12-29T02:57:27;3.77;;;3.50;;
2406;SDS011;37709;53.480;9.688;2022-12-29T03:00:08;4.13;;;3.83;;
2406;SDS011;37709;53.480;9.688;2022-12-29T03:10:55;5.03;;;3.60;;
2406;SDS011;37709;53.480;9.688;2022-12-29T03:13:52;3.80;;;3.47;;
2406;SDS011;37709;53.480;9.688;2022-12-29T03:16:48;3.43;;;3.13;;
2406;SDS011;37709;53.480;9.688;2022-12-29T03:19:25;3.23;;;3.03;;
2406;SDS011;37709;53.480;9.688;2022-12-29T03:21:59;3.80;;;3.50;;
2406;SDS011;37709;53.480;9.688;2022-12-29T03:27:28;4.07;;;3.73;;
2406;SDS011;37709;53.480;9.688;2022-12-29T03:29:58;3.50;;;3.20;;
2406;SDS011;37709;53.480;9.688;2022-12-29T03:32:33;3.70;;;3.40;;
2406;SDS011;37709;53.480;9.688;2022-12-29T03:35:05;3.30;;;3.10;;
2406;SDS011;37709;53.480;9.688;2022-12-29T03:37:36;3.67;;;3.37;;
2406;SDS011;37709;53.480;9.688;2022-12-29T03:40:07;3.90;;;3.60;;
2406;SDS011;37709;53.480;9.688;2022-12-29T03:42:35;3.40;;;3.10;;
2406;SDS011;37709;53.480;9.688;2022-12-29T03:45:05;3.40;;;3.10;;
2406;SDS011;37709;53.480;9.688;2022-12-29T03:47:36;3.50;;;3.20;;
2406;SDS011;37709;53.480;9.688;2022-12-29T03:50:04;4.10;;;3.80;;
2406;SDS011;37709;53.480;9.688;2022-12-29T03:52:36;3.23;;;3.00;;
2406;SDS011;37709;53.480;9.688;2022-12-29T03:55:04;3.40;;;3.10;;
2406;SDS011;37709;53.480;9.688;2022-12-29T03:57:33;3.50;;;3.20;;
2406;SDS011;37709;53.480;9.688;2022-12-29T04:00:05;2.57;;;2.37;;
2406;SDS011;37709;53.480;9.688;2022-12-29T04:02:41;3.17;;;2.90;;
2406;SDS011;37709;53.480;9.688;2022-12-29T04:05:13;2.80;;;2.60;;
2406;SDS011;37709;53.480;9.688;2022-12-29T04:07:41;2.83;;;2.53;;
2406;SDS011;37709;53.480;9.688;2022-12-29T04:10:08;2.60;;;2.40;;
2406;SDS011;37709;53.480;9.688;2022-12-29T04:12:36;3.10;;;2.80;;
2406;SDS011;37709;53.480;9.688;2022-12-29T04:15:04;2.50;;;2.30;;
2406;SDS011;37709;53.480;9.688;2022-12-29T04:17:32;2.40;;;2.20;;
2406;SDS011;37709;53.480;9.688;2022-12-29T04:20:01;3.17;;;2.87;;
2406;SDS011;37709;53.480;9.688;2022-12-29T04:22:48;2.87;;;2.67;;
2406;SDS011;37709;53.480;9.688;2022-12-29T04:25:16;2.70;;;2.50;;
2406;SDS011;37709;53.480;9.688;2022-12-29T04:27:44;2.80;;;2.60;;
2406;SDS011;37709;53.480;9.688;2022-12-29T04:30:29;2.00;;;1.80;;
2406;SDS011;37709;53.480;9.688;2022-12-29T04:33:05;2.67;;;2.47;;
2406;SDS011;37709;53.480;9.688;2022-12-29T04:35:33;2.00;;;1.90;;
2406;SDS011;37709;53.480;9.688;2022-12-29T04:38:00;2.67;;;2.37;;
2406;SDS011;37709;53.480;9.688;2022-12-29T04:40:28;2.00;;;1.90;;
2406;SDS011;37709;53.480;9.688;2022-12-29T04:42:55;1.70;;;1.60;;
2406;SDS011;37709;53.480;9.688;2022-12-29T04:45:24;2.70;;;2.30;;
2406;SDS011;37709;53.480;9.688;2022-12-29T04:47:57;2.30;;;2.10;;
2406;SDS011;37709;53.480;9.688;2022-12-29T04:50:41;1.70;;;1.60;;
2406;SDS011;37709;53.480;9.688;2022-12-29T04:53:15;2.70;;;1.90;;
2406;SDS011;37709;53.480;9.688;2022-12-29T04:55:47;1.60;;;1.50;;
2406;SDS011;37709;53.480;9.688;2022-12-29T04:58:17;2.00;;;1.70;;
2406;SDS011;37709;53.480;9.688;2022-12-29T05:00:50;2.17;;;1.97;;
2406;SDS011;37709;53.480;9.688;2022-12-29T05:03:23;2.40;;;2.00;;
2406;SDS011;37709;53.480;9.688;2022-12-29T05:05:53;1.67;;;1.50;;
2406;SDS011;37709;53.480;9.688;2022-12-29T05:08:22;2.03;;;1.83;;
2406;SDS011;37709;53.480;9.688;2022-12-29T05:10:57;2.50;;;2.30;;
2406;SDS011;37709;53.480;9.688;2022-12-29T05:13:25;1.80;;;1.70;;
2406;SDS011;37709;53.480;9.688;2022-12-29T05:15:53;2.70;;;2.50;;
2406;SDS011;37709;53.480;9.688;2022-12-29T05:18:22;2.27;;;2.17;;
2406;SDS011;37709;53.480;9.688;2022-12-29T05:20:49;3.03;;;2.73;;
2406;SDS011;37709;53.480;9.688;2022-12-29T05:23:19;2.30;;;2.20;;
2406;SDS011;37709;53.480;9.688;2022-12-29T05:25:52;3.40;;;3.10;;
2406;SDS011;37709;53.480;9.688;2022-12-29T05:28:27;3.50;;;2.33;;
2406;SDS011;37709;53.480;9.688;2022-12-29T05:31:04;2.73;;;2.13;;
2406;SDS011;37709;53.480;9.688;2022-12-29T05:33:32;2.33;;;2.13;;
2406;SDS011;37709;53.480;9.688;2022-12-29T05:36:06;3.50;;;2.70;;
2406;SDS011;37709;53.480;9.688;2022-12-29T05:38:36;2.63;;;2.43;;
2406;SDS011;37709;53.480;9.688;2022-12-29T05:41:04;2.63;;;2.43;;
2406;SDS011;37709;53.480;9.688;2022-12-29T05:43:51;2.77;;;2.57;;
2406;SDS011;37709;53.480;9.688;2022-12-29T05:46:29;2.63;;;2.43;;
2406;SDS011;37709;53.480;9.688;2022-12-29T05:49:17;2.30;;;2.10;;
2406;SDS011;37709;53.480;9.688;2022-12-29T05:52:16;1.87;;;1.60;;
2406;SDS011;37709;53.480;9.688;2022-12-29T05:54:44;3.17;;;1.93;;
2406;SDS011;37709;53.480;9.688;2022-12-29T05:57:15;2.10;;;2.00;;
2406;SDS011;37709;53.480;9.688;2022-12-29T05:59:46;2.27;;;2.07;;
2406;SDS011;37709;53.480;9.688;2022-12-29T06:02:14;1.83;;;1.73;;
2406;SDS011;37709;53.480;9.688;2022-12-29T06:04:41;3.00;;;1.97;;
2406;SDS011;37709;53.480;9.688;2022-12-29T06:07:09;2.20;;;2.00;;
2406;SDS011;37709;53.480;9.688;2022-12-29T06:09:41;3.23;;;2.43;;
2406;SDS011;37709;53.480;9.688;2022-12-29T06:12:09;5.40;;;2.20;;
2406;SDS011;37709;53.480;9.688;2022-12-29T06:14:38;2.53;;;2.30;;
2406;SDS011;37709;53.480;9.688;2022-12-29T06:17:05;2.50;;;2.30;;
2406;SDS011;37709;53.480;9.688;2022-12-29T06:19:33;3.00;;;2.43;;
2406;SDS011;37709;53.480;9.688;2022-12-29T06:22:01;2.43;;;2.33;;
2406;SDS011;37709;53.480;9.688;2022-12-29T06:24:32;2.73;;;2.53;;
2406;SDS011;37709;53.480;9.688;2022-12-29T06:26:59;2.60;;;2.40;;
2406;SDS011;37709;53.480;9.688;2022-12-29T06:29:26;3.00;;;2.50;;
2406;SDS011;37709;53.480;9.688;2022-12-29T06:31:56;2.13;;;2.03;;
2406;SDS011;37709;53.480;9.688;2022-12-29T06:34:25;2.93;;;2.43;;
2406;SDS011;37709;53.480;9.688;2022-12-29T06:36:53;2.20;;;2.03;;
2406;SDS011;37709;53.480;9.688;2022-12-29T06:39:21;2.43;;;2.23;;
2406;SDS011;37709;53.480;9.688;2022-12-29T06:41:59;1.67;;;1.57;;
2406;SDS011;37709;53.480;9.688;2022-12-29T06:44:44;2.53;;;1.97;;
2406;SDS011;37709;53.480;9.688;2022-12-29T06:47:12;3.20;;;2.50;;
2406;SDS011;37709;53.480;9.688;2022-12-29T06:49:39;2.57;;;1.67;;
2406;SDS011;37709;53.480;9.688;2022-12-29T06:52:06;2.37;;;1.80;;
2406;SDS011;37709;53.480;9.688;2022-12-29T06:54:38;2.10;;;1.80;;
2406;SDS011;37709;53.480;9.688;2022-12-29T06:57:06;2.40;;;1.70;;
2406;SDS011;37709;53.480;9.688;2022-12-29T06:59:33;3.10;;;2.30;;
2406;SDS011;37709;53.480;9.688;2022-12-29T07:02:00;2.43;;;2.00;;
2406;SDS011;37709;53.480;9.688;2022-12-29T07:04:29;2.10;;;1.90;;
2406;SDS011;37709;53.480;9.688;2022-12-29T07:06:56;2.40;;;2.20;;
2406;SDS011;37709;53.480;9.688;2022-12-29T07:09:24;2.50;;;2.30;;
2406;SDS011;37709;53.480;9.688;2022-12-29T07:11:51;2.30;;;2.10;;
2406;SDS011;37709;53.480;9.688;2022-12-29T07:14:19;4.00;;;2.70;;
2406;SDS011;37709;53.480;9.688;2022-12-29T07:16:46;4.03;;;3.00;;
2406;SDS011;37709;53.480;9.688;2022-12-29T07:19:13;3.50;;;3.20;;
2406;SDS011;37709;53.480;9.688;2022-12-29T07:21:41;3.77;;;3.47;;
2406;SDS011;37709;53.480;9.688;2022-12-29T07:24:12;3.37;;;3.17;;
2406;SDS011;37709;53.480;9.688;2022-12-29T07:26:39;3.63;;;2.80;;
2406;SDS011;37709;53.480;9.688;2022-12-29T07:29:08;2.90;;;2.70;;
2406;SDS011;37709;53.480;9.688;2022-12-29T07:31:37;2.70;;;2.10;;
2406;SDS011;37709;53.480;9.688;2022-12-29T07:34:04;2.40;;;2.20;;
2406;SDS011;37709;53.480;9.688;2022-12-29T07:36:32;2.67;;;2.20;;
2406;SDS011;37709;53.480;9.688;2022-12-29T07:39:01;3.23;;;2.10;;
2406;SDS011;37709;53.480;9.688;2022-12-29T07:41:30;3.73;;;1.43;;
2406;SDS011;37709;53.480;9.688;2022-12-29T07:43:59;2.00;;;1.50;;
2406;SDS011;37709;53.480;9.688;2022-12-29T07:46:46;2.80;;;1.60;;
2406;SDS011;37709;53.480;9.688;2022-12-29T07:49:23;2.00;;;1.60;;
2406;SDS011;37709;53.480;9.688;2022-12-29T07:51:50;3.03;;;1.70;;
2406;SDS011;37709;53.480;9.688;2022-12-29T07:54:18;3.20;;;2.00;;
2406;SDS011;37709;53.480;9.688;2022-12-29T07:56:45;1.50;;;1.40;;
2406;SDS011;37709;53.480;9.688;2022-12-29T07:59:13;2.43;;;1.90;;
2406;SDS011;37709;53.480;9.688;2022-12-29T08:01:40;2.33;;;1.40;;
2406;SDS011;37709;53.480;9.688;2022-12-29T08:04:08;1.53;;;1.43;;
2406;SDS011;37709;53.480;9.688;2022-12-29T08:06:35;1.50;;;1.40;;
2406;SDS011;37709;53.480;9.688;2022-12-29T08:09:04;1.70;;;1.60;;
2406;SDS011;37709;53.480;9.688;2022-12-29T08:11:42;1.93;;;1.83;;
2406;SDS011;37709;53.480;9.688;2022-12-29T08:14:10;2.27;;;1.70;;
2406;SDS011;37709;53.480;9.688;2022-12-29T08:16:38;2.40;;;2.17;;
2406;SDS011;37709;53.480;9.688;2022-12-29T08:19:06;2.03;;;1.83;;
2406;SDS011;37709;53.480;9.688;2022-12-29T08:21:33;2.50;;;2.30;;
2406;SDS011;37709;53.480;9.688;2022-12-29T08:24:00;2.43;;;2.23;;
2406;SDS011;37709;53.480;9.688;2022-12-29T08:26:28;3.53;;;2.13;;
2406;SDS011;37709;53.480;9.688;2022-12-29T08:28:55;3.20;;;1.97;;
2406;SDS011;37709;53.480;9.688;2022-12-29T08:31:23;2.13;;;1.80;;
2406;SDS011;37709;53.480;9.688;2022-12-29T08:33:51;2.60;;;1.77;;
2406;SDS011;37709;53.480;9.688;2022-12-29T08:36:19;1.77;;;1.37;;
2406;SDS011;37709;53.480;9.688;2022-12-29T08:38:46;1.70;;;1.60;;
2406;SDS011;37709;53.480;9.688;2022-12-29T08:41:13;2.97;;;1.10;;
2406;SDS011;37709;53.480;9.688;2022-12-29T08:43:41;3.20;;;1.30;;
2406;SDS011;37709;53.480;9.688;2022-12-29T08:46:12;1.80;;;1.10;;
2406;SDS011;37709;53.480;9.688;2022-12-29T08:48:39;2.67;;;1.33;;
2406;SDS011;37709;53.480;9.688;2022-12-29T08:51:11;2.23;;;1.00;;
2406;SDS011;37709;53.480;9.688;2022-12-29T08:53:39;1.73;;;1.10;;
2406;SDS011;37709;53.480;9.688;2022-12-29T08:56:08;2.40;;;1.20;;
2406;SDS011;37709;53.480;9.688;2022-12-29T08:58:44;2.97;;;1.10;;
2406;SDS011;37709;53.480;9.688;2022-12-29T09:01:12;1.67;;;0.90;;
2406;SDS011;37709;53.480;9.688;2022-12-29T09:03:39;1.53;;;0.90;;
2406;SDS011;37709;53.480;9.688;2022-12-29T09:06:26;2.97;;;0.77;;
2406;SDS011;37709;53.480;9.688;2022-12-29T09:08:58;2.90;;;1.00;;
2406;SDS011;37709;53.480;9.688;2022-12-29T09:11:26;1.67;;;0.80;;
2406;SDS011;37709;53.480;9.688;2022-12-29T09:13:54;2.00;;;1.33;;
2406;SDS011;37709;53.480;9.688;2022-12-29T09:16:22;0.90;;;0.67;;
2406;SDS011;37709;53.480;9.688;2022-12-29T09:18:50;1.50;;;0.90;;
2406;SDS011;37709;53.480;9.688;2022-12-29T09:24:10;1.90;;;1.10;;
2406;SDS011;37709;53.480;9.688;2022-12-29T09:26:37;1.50;;;0.80;;
2406;SDS011;37709;53.480;9.688;2022-12-29T09:29:12;1.63;;;0.70;;
2406;SDS011;37709;53.480;9.688;2022-12-29T09:31:40;1.60;;;1.00;;
2406;SDS011;37709;53.480;9.688;2022-12-29T09:34:07;3.33;;;1.00;;
2406;SDS011;37709;53.480;9.688;2022-12-29T09:36:35;2.40;;;0.70;;
2406;SDS011;37709;53.480;9.688;2022-12-29T09:39:02;2.17;;;1.00;;
2406;SDS011;37709;53.480;9.688;2022-12-29T09:41:34;1.10;;;0.80;;
2406;SDS011;37709;53.480;9.688;2022-12-29T09:47:05;3.37;;;0.77;;
2406;SDS011;37709;53.480;9.688;2022-12-29T09:52:13;3.00;;;1.10;;
2406;SDS011;37709;53.480;9.688;2022-12-29T09:54:53;3.63;;;1.30;;
2406;SDS011;37709;53.480;9.688;2022-12-29T10:00:37;1.50;;;1.40;;
2406;SDS011;37709;53.480;9.688;2022-12-29T10:03:15;1.00;;;0.70;;
2406;SDS011;37709;53.480;9.688;2022-12-29T10:05:48;2.43;;;0.93;;
2406;SDS011;37709;53.480;9.688;2022-12-29T10:08:24;3.40;;;0.80;;
2406;SDS011;37709;53.480;9.688;2022-12-29T10:16:11;1.90;;;0.73;;
2406;SDS011;37709;53.480;9.688;2022-12-29T10:19:55;3.23;;;1.03;;
2406;SDS011;37709;53.480;9.688;2022-12-29T10:24:57;3.20;;;0.90;;
2406;SDS011;37709;53.480;9.688;2022-12-29T10:27:30;3.80;;;1.13;;
2406;SDS011;37709;53.480;9.688;2022-12-29T10:30:00;3.03;;;1.30;;
2406;SDS011;37709;53.480;9.688;2022-12-29T10:32:30;6.77;;;1.10;;
2406;SDS011;37709;53.480;9.688;2022-12-29T10:35:10;3.23;;;1.10;;
2406;SDS011;37709;53.480;9.688;2022-12-29T10:37:56;2.20;;;0.90;;
2406;SDS011;37709;53.480;9.688;2022-12-29T10:43:20;2.20;;;1.00;;
2406;SDS011;37709;53.480;9.688;2022-12-29T10:45:54;1.37;;;0.80;;
2406;SDS011;37709;53.480;9.688;2022-12-29T10:48:33;4.67;;;1.50;;
2406;SDS011;37709;53.480;9.688;2022-12-29T10:51:02;2.90;;;1.13;;
2406;SDS011;37709;53.480;9.688;2022-12-29T10:53:46;4.60;;;1.13;;
2406;SDS011;37709;53.480;9.688;2022-12-29T10:56:34;3.13;;;0.97;;
2406;SDS011;37709;53.480;9.688;2022-12-29T10:59:16;2.30;;;1.27;;
2406;SDS011;37709;53.480;9.688;2022-12-29T11:04:28;2.70;;;1.07;;
2406;SDS011;37709;53.480;9.688;2022-12-29T11:07:03;2.93;;;1.10;;
2406;SDS011;37709;53.480;9.688;2022-12-29T11:09:39;1.53;;;0.77;;
2406;SDS011;37709;53.480;9.688;2022-12-29T11:12:28;2.33;;;0.60;;
2406;SDS011;37709;53.480;9.688;2022-12-29T11:15:02;2.17;;;0.70;;
2406;SDS011;37709;53.480;9.688;2022-12-29T11:17:47;1.60;;;0.70;;
2406;SDS011;37709;53.480;9.688;2022-12-29T11:20:37;1.70;;;1.00;;
2406;SDS011;37709;53.480;9.688;2022-12-29T11:23:05;3.63;;;1.00;;
2406;SDS011;37709;53.480;9.688;2022-12-29T11:26:12;2.53;;;1.30;;
2406;SDS011;37709;53.480;9.688;2022-12-29T11:28:43;4.23;;;1.00;;
2406;SDS011;37709;53.480;9.688;2022-12-29T11:31:16;3.80;;;1.00;;
2406;SDS011;37709;53.480;9.688;2022-12-29T11:33:44;1.20;;;0.50;;
2406;SDS011;37709;53.480;9.688;2022-12-29T11:36:20;2.90;;;0.50;;
2406;SDS011;37709;53.480;9.688;2022-12-29T11:38:53;1.33;;;0.67;;
2406;SDS011;37709;53.480;9.688;2022-12-29T11:41:23;1.20;;;0.67;;
2406;SDS011;37709;53.480;9.688;2022-12-29T11:43:52;2.20;;;0.93;;
2406;SDS011;37709;53.480;9.688;2022-12-29T11:46:23;0.90;;;0.70;;
2406;SDS011;37709;53.480;9.688;2022-12-29T11:48:55;1.90;;;0.80;;
2406;SDS011;37709;53.480;9.688;2022-12-29T11:51:27;2.93;;;1.07;;
2406;SDS011;37709;53.480;9.688;2022-12-29T11:53:57;2.67;;;0.80;;
2406;SDS011;37709;53.480;9.688;2022-12-29T11:56:34;2.87;;;0.80;;
2406;SDS011;37709;53.480;9.688;2022-12-29T12:01:54;3.60;;;0.90;;
2406;SDS011;37709;53.480;9.688;2022-12-29T12:04:24;2.60;;;0.87;;
2406;SDS011;37709;53.480;9.688;2022-12-29T12:09:45;2.23;;;1.00;;
2406;SDS011;37709;53.480;9.688;2022-12-29T12:15:39;6.23;;;1.70;;
2406;SDS011;37709;53.480;9.688;2022-12-29T12:18:24;4.23;;;1.30;;
2406;SDS011;37709;53.480;9.688;2022-12-29T12:21:22;2.73;;;0.90;;
2406;SDS011;37709;53.480;9.688;2022-12-29T12:26:31;5.20;;;1.10;;
2406;SDS011;37709;53.480;9.688;2022-12-29T12:30:02;2.43;;;0.80;;
2406;SDS011;37709;53.480;9.688;2022-12-29T12:35:11;3.13;;;1.33;;
2406;SDS011;37709;53.480;9.688;2022-12-29T12:40:42;2.30;;;1.07;;
2406;SDS011;37709;53.480;9.688;2022-12-29T12:43:27;2.30;;;1.17;;
2406;SDS011;37709;53.480;9.688;2022-12-29T12:52:16;6.33;;;1.50;;
2406;SDS011;37709;53.480;9.688;2022-12-29T13:00:28;3.03;;;1.10;;
2406;SDS011;37709;53.480;9.688;2022-12-29T13:03:13;3.43;;;0.80;;
2406;SDS011;37709;53.480;9.688;2022-12-29T13:06:06;2.60;;;1.00;;
2406;SDS011;37709;53.480;9.688;2022-12-29T13:14:42;2.23;;;0.83;;
2406;SDS011;37709;53.480;9.688;2022-12-29T13:17:34;3.70;;;1.60;;
2406;SDS011;37709;53.480;9.688;2022-12-29T13:28:51;3.63;;;0.97;;
2406;SDS011;37709;53.480;9.688;2022-12-29T13:31:35;4.73;;;1.13;;
2406;SDS011;37709;53.480;9.688;2022-12-29T13:34:34;3.43;;;0.87;;
2406;SDS011;37709;53.480;9.688;2022-12-29T13:37:17;3.73;;;1.10;;
2406;SDS011;37709;53.480;9.688;2022-12-29T13:39:48;8.10;;;1.57;;
2406;SDS011;37709;53.480;9.688;2022-12-29T13:42:21;2.30;;;1.00;;
2406;SDS011;37709;53.480;9.688;2022-12-29T13:45:05;2.73;;;1.07;;
2406;SDS011;37709;53.480;9.688;2022-12-29T13:47:40;2.57;;;0.80;;
2406;SDS011;37709;53.480;9.688;2022-12-29T13:50:14;4.70;;;1.40;;
2406;SDS011;37709;53.480;9.688;2022-12-29T13:52:45;2.50;;;0.60;;
2406;SDS011;37709;53.480;9.688;2022-12-29T13:57:48;4.93;;;1.43;;
2406;SDS011;37709;53.480;9.688;2022-12-29T14:00:26;1.40;;;0.93;;
2406;SDS011;37709;53.480;9.688;2022-12-29T14:03:04;3.70;;;1.13;;
2406;SDS011;37709;53.480;9.688;2022-12-29T14:05:46;3.70;;;1.30;;
2406;SDS011;37709;53.480;9.688;2022-12-29T14:08:50;1.87;;;0.80;;
2406;SDS011;37709;53.480;9.688;2022-12-29T14:11:28;1.60;;;0.67;;
2406;SDS011;37709;53.480;9.688;2022-12-29T14:13:59;5.87;;;0.80;;
2406;SDS011;37709;53.480;9.688;2022-12-29T14:16:38;2.73;;;1.73;;
2406;SDS011;37709;53.480;9.688;2022-12-29T14:22:00;3.47;;;1.33;;
2406;SDS011;37709;53.480;9.688;2022-12-29T14:34:54;1.83;;;0.70;;
2406;SDS011;37709;53.480;9.688;2022-12-29T14:37:27;4.80;;;1.03;;
2406;SDS011;37709;53.480;9.688;2022-12-29T14:42:46;3.07;;;0.80;;
2406;SDS011;37709;53.480;9.688;2022-12-29T14:47:43;5.10;;;1.23;;
2406;SDS011;37709;53.480;9.688;2022-12-29T14:50:23;5.20;;;1.20;;
2406;SDS011;37709;53.480;9.688;2022-12-29T15:00:59;8.43;;;1.23;;
2406;SDS011;37709;53.480;9.688;2022-12-29T15:03:43;3.50;;;0.90;;
2406;SDS011;37709;53.480;9.688;2022-12-29T15:06:17;3.87;;;1.40;;
2406;SDS011;37709;53.480;9.688;2022-12-29T15:08:50;2.60;;;1.40;;
2406;SDS011;37709;53.480;9.688;2022-12-29T15:14:27;3.73;;;1.43;;
2406;SDS011;37709;53.480;9.688;2022-12-29T15:16:57;3.30;;;1.40;;
2406;SDS011;37709;53.480;9.688;2022-12-29T15:19:25;2.27;;;1.13;;
2406;SDS011;37709;53.480;9.688;2022-12-29T15:21:54;4.47;;;1.50;;
2406;SDS011;37709;53.480;9.688;2022-12-29T15:24:22;5.33;;;1.70;;
2406;SDS011;37709;53.480;9.688;2022-12-29T15:26:51;5.33;;;1.70;;
2406;SDS011;37709;53.480;9.688;2022-12-29T15:29:31;7.70;;;2.00;;
2406;SDS011;37709;53.480;9.688;2022-12-29T15:34:44;2.47;;;1.03;;
2406;SDS011;37709;53.480;9.688;2022-12-29T15:37:24;3.37;;;1.53;;
2406;SDS011;37709;53.480;9.688;2022-12-29T15:39:53;8.30;;;2.60;;
2406;SDS011;37709;53.480;9.688;2022-12-29T15:42:25;5.70;;;1.73;;
2406;SDS011;37709;53.480;9.688;2022-12-29T15:45:10;8.13;;;2.00;;
2406;SDS011;37709;53.480;9.688;2022-12-29T15:47:41;4.63;;;1.27;;
2406;SDS011;37709;53.480;9.688;2022-12-29T15:50:15;7.00;;;2.20;;
2406;SDS011;37709;53.480;9.688;2022-12-29T15:52:59;8.07;;;1.50;;
2406;SDS011;37709;53.480;9.688;2022-12-29T15:55:32;6.23;;;1.87;;
2406;SDS011;37709;53.480;9.688;2022-12-29T16:00:56;5.27;;;2.43;;
2406;SDS011;37709;53.480;9.688;2022-12-29T16:03:27;4.17;;;1.80;;
2406;SDS011;37709;53.480;9.688;2022-12-29T16:09:01;4.77;;;1.63;;
2406;SDS011;37709;53.480;9.688;2022-12-29T16:11:34;4.87;;;1.70;;
2406;SDS011;37709;53.480;9.688;2022-12-29T16:14:15;5.00;;;2.00;;
2406;SDS011;37709;53.480;9.688;2022-12-29T16:16:45;3.50;;;1.50;;
2406;SDS011;37709;53.480;9.688;2022-12-29T16:19:22;2.10;;;1.47;;
2406;SDS011;37709;53.480;9.688;2022-12-29T16:21:54;5.37;;;1.20;;
2406;SDS011;37709;53.480;9.688;2022-12-29T16:24:23;5.57;;;2.00;;
2406;SDS011;37709;53.480;9.688;2022-12-29T16:27:19;5.80;;;1.40;;
2406;SDS011;37709;53.480;9.688;2022-12-29T16:29:49;7.50;;;1.67;;
2406;SDS011;37709;53.480;9.688;2022-12-29T16:32:22;3.00;;;1.60;;
2406;SDS011;37709;53.480;9.688;2022-12-29T16:35:12;5.87;;;2.37;;
2406;SDS011;37709;53.480;9.688;2022-12-29T16:37:40;3.43;;;1.90;;
2406;SDS011;37709;53.480;9.688;2022-12-29T16:42:47;4.60;;;2.03;;
2406;SDS011;37709;53.480;9.688;2022-12-29T16:47:45;3.57;;;1.30;;
2406;SDS011;37709;53.480;9.688;2022-12-29T16:50:37;2.70;;;1.60;;
2406;SDS011;37709;53.480;9.688;2022-12-29T16:53:15;2.83;;;1.50;;
2406;SDS011;37709;53.480;9.688;2022-12-29T16:55:47;4.33;;;1.90;;
2406;SDS011;37709;53.480;9.688;2022-12-29T16:58:17;5.27;;;2.23;;
2406;SDS011;37709;53.480;9.688;2022-12-29T17:00:47;2.90;;;1.87;;
2406;SDS011;37709;53.480;9.688;2022-12-29T17:03:15;7.03;;;2.47;;
2406;SDS011;37709;53.480;9.688;2022-12-29T17:05:43;6.50;;;2.10;;
2406;SDS011;37709;53.480;9.688;2022-12-29T17:08:17;4.23;;;2.43;;
2406;SDS011;37709;53.480;9.688;2022-12-29T17:10:50;8.23;;;2.70;;
2406;SDS011;37709;53.480;9.688;2022-12-29T17:13:41;4.30;;;2.00;;
2406;SDS011;37709;53.480;9.688;2022-12-29T17:16:09;5.40;;;2.77;;
2406;SDS011;37709;53.480;9.688;2022-12-29T17:18:37;4.27;;;2.10;;
2406;SDS011;37709;53.480;9.688;2022-12-29T17:21:08;3.87;;;1.90;;
2406;SDS011;37709;53.480;9.688;2022-12-29T17:23:36;8.93;;;2.30;;
2406;SDS011;37709;53.480;9.688;2022-12-29T17:26:03;5.00;;;2.73;;
2406;SDS011;37709;53.480;9.688;2022-12-29T17:28:33;5.40;;;2.87;;
2406;SDS011;37709;53.480;9.688;2022-12-29T17:31:01;5.60;;;2.87;;
2406;SDS011;37709;53.480;9.688;2022-12-29T17:33:34;5.23;;;3.00;;
2406;SDS011;37709;53.480;9.688;2022-12-29T17:36:03;3.50;;;2.30;;
2406;SDS011;37709;53.480;9.688;2022-12-29T17:38:33;6.17;;;2.40;;
2406;SDS011;37709;53.480;9.688;2022-12-29T17:41:02;4.93;;;2.60;;
2406;SDS011;37709;53.480;9.688;2022-12-29T17:43:29;5.83;;;2.10;;
2406;SDS011;37709;53.480;9.688;2022-12-29T17:46:03;5.33;;;2.50;;
2406;SDS011;37709;53.480;9.688;2022-12-29T17:48:32;6.93;;;2.50;;
2406;SDS011;37709;53.480;9.688;2022-12-29T17:51:00;5.00;;;1.97;;
2406;SDS011;37709;53.480;9.688;2022-12-29T17:53:28;4.43;;;2.47;;
2406;SDS011;37709;53.480;9.688;2022-12-29T17:55:56;5.50;;;2.47;;